createdAt,value
2024-05-09T00:00:31.508Z,3272.0000
2024-05-09T00:01:28.816Z,3295.7693
2024-05-09T00:02:29.710Z,3292.1667
2024-05-09T00:03:31.216Z,3275.2307
2024-05-09T00:04:32.750Z,3279.4614
2024-05-09T00:05:34.481Z,3281.1538
2024-05-09T00:06:35.749Z,3296.0000
2024-05-09T00:07:37.282Z,3283.9231
2024-05-09T00:08:38.894Z,3280.3076
2024-05-09T00:09:40.329Z,3287.4614
2024-05-09T00:10:41.862Z,3287.3845
2024-05-09T00:11:44.373Z,3297.0000
2024-05-09T00:12:44.928Z,3291.5000
2024-05-09T00:13:46.519Z,3291.0000
2024-05-09T00:14:48.061Z,3304.3845
2024-05-09T00:15:49.492Z,3300.4614
2024-05-09T00:16:51.085Z,3293.9231
2024-05-09T00:17:52.741Z,3307.7693
2024-05-09T00:18:54.250Z,3300.7693
2024-05-09T00:19:55.846Z,3297.2307
2024-05-09T00:20:57.163Z,3305.5386
2024-05-09T00:21:58.670Z,3285.3076
2024-05-09T00:23:00.248Z,3315.6155
2024-05-09T00:24:01.717Z,3312.3076
2024-05-09T00:25:03.278Z,3286.0769
2024-05-09T00:26:04.806Z,3299.7693
2024-05-09T00:27:06.380Z,3291.1538
2024-05-09T00:28:07.873Z,3301.1538
2024-05-09T00:29:09.482Z,3300.0000
2024-05-09T00:30:17.455Z,3302.4614
2024-05-09T00:31:12.449Z,3290.6155
2024-05-09T00:32:14.128Z,3298.7693
2024-05-09T00:33:15.693Z,3292.5386
2024-05-09T00:34:17.102Z,3297.9231
2024-05-09T00:35:18.698Z,3301.0000
2024-05-09T00:36:20.089Z,3299.3845
2024-05-09T00:37:21.599Z,3295.0000
2024-05-09T00:38:23.248Z,3286.7693
2024-05-09T00:39:24.679Z,3289.6155
2024-05-09T00:40:34.683Z,3300.3076
2024-05-09T00:41:27.899Z,3278.3076
2024-05-09T00:42:29.274Z,3284.1538
2024-05-09T00:43:30.793Z,3307.3076
2024-05-09T00:44:32.346Z,3295.3076
2024-05-09T00:45:33.851Z,3297.9231
2024-05-09T00:46:35.422Z,3295.9231
2024-05-09T00:47:37.009Z,3288.9231
2024-05-09T00:48:38.563Z,3288.6924
2024-05-09T00:49:40.034Z,3286.2307
2024-05-09T00:50:42.111Z,3299.4614
2024-05-09T00:51:43.054Z,3288.6924
2024-05-09T00:52:44.664Z,3305.9231
2024-05-09T00:53:46.147Z,3285.3076
2024-05-09T00:54:47.633Z,3278.3845
2024-05-09T00:55:49.216Z,3280.3076
2024-05-09T00:56:50.738Z,3277.3845
2024-05-09T00:57:52.243Z,3281.3076
2024-05-09T00:58:53.810Z,3276.0000
2024-05-09T00:59:55.303Z,3284.9231
2024-05-09T01:00:56.894Z,3280.5386
2024-05-09T01:01:58.544Z,3301.2307
2024-05-09T01:03:00.033Z,3291.4614
2024-05-09T01:04:01.552Z,3281.3076
2024-05-09T01:05:03.054Z,3272.0000
2024-05-09T01:06:04.518Z,3283.8462
2024-05-09T01:07:06.085Z,3284.5386
2024-05-09T01:08:07.711Z,3276.3076
2024-05-09T01:09:09.069Z,3274.0000
2024-05-09T01:10:17.030Z,3284.2307
2024-05-09T01:11:12.323Z,3285.0769
2024-05-09T01:12:13.926Z,3288.0000
2024-05-09T01:13:15.218Z,3290.6924
2024-05-09T01:14:16.784Z,3279.7693
2024-05-09T01:15:18.292Z,3272.6924
2024-05-09T01:16:19.801Z,3270.2307
2024-05-09T01:17:21.462Z,3267.1538
2024-05-09T01:18:22.971Z,3277.0769
2024-05-09T01:19:24.462Z,3280.6924
2024-05-09T01:20:36.897Z,3276.6155
2024-05-09T01:21:27.480Z,3277.3333
2024-05-09T01:22:29.382Z,3287.5386
2024-05-09T01:23:30.729Z,3273.0000
2024-05-09T01:24:32.052Z,3273.3076
2024-05-09T01:25:33.580Z,3270.9231
2024-05-09T01:26:35.156Z,3279.1538
2024-05-09T01:27:36.825Z,3272.3845
2024-05-09T01:28:38.188Z,3266.3076
2024-05-09T01:29:39.721Z,3267.9231
2024-05-09T01:30:41.277Z,3279.0769
2024-05-09T01:31:42.887Z,3267.6924
2024-05-09T01:32:44.499Z,3267.3845
2024-05-09T01:33:46.014Z,3250.6924
2024-05-09T01:34:47.412Z,3263.0000
2024-05-09T01:35:48.944Z,3255.8462
2024-05-09T01:36:50.453Z,3264.9231
2024-05-09T01:37:52.016Z,3264.8462
2024-05-09T01:38:53.512Z,3275.6155
2024-05-09T01:39:55.046Z,3254.8462
2024-05-09T01:40:56.669Z,3265.3076
2024-05-09T01:41:58.096Z,3281.0000
2024-05-09T01:42:59.656Z,3276.6155
2024-05-09T01:44:01.214Z,3264.7693
2024-05-09T01:45:02.716Z,3266.3076
2024-05-09T01:46:04.233Z,3254.0769
2024-05-09T01:47:05.866Z,3262.1538
2024-05-09T01:48:07.480Z,3255.2307
2024-05-09T01:49:08.982Z,3261.6924
2024-05-09T01:50:11.087Z,3248.4614
2024-05-09T01:51:12.136Z,3271.2307
2024-05-09T01:52:13.440Z,3254.4614
2024-05-09T01:53:15.566Z,3250.9231
2024-05-09T01:54:16.514Z,3253.3333
2024-05-09T01:55:18.025Z,3276.6155
2024-05-09T01:56:19.565Z,3266.2307
2024-05-09T01:57:21.132Z,3270.3845
2024-05-09T01:58:22.635Z,3262.8462
2024-05-09T01:59:24.272Z,3249.3845
2024-05-09T02:00:34.199Z,3247.3845
2024-05-09T02:01:27.211Z,3272.0000
2024-05-09T02:02:28.804Z,3269.9231
2024-05-09T02:03:30.455Z,3269.0769
2024-05-09T02:04:31.984Z,3254.0000
2024-05-09T02:05:33.476Z,3266.0000
2024-05-09T02:06:34.876Z,3257.3076
2024-05-09T02:07:36.399Z,3264.0000
2024-05-09T02:08:38.014Z,3267.3076
2024-05-09T02:09:39.462Z,3243.8462
2024-05-09T02:10:41.125Z,3273.4614
2024-05-09T02:11:42.589Z,3260.2307
2024-05-09T02:12:44.066Z,3246.1538
2024-05-09T02:13:45.631Z,3260.7693
2024-05-09T02:14:47.121Z,3258.7693
2024-05-09T02:15:48.652Z,3268.8462
2024-05-09T02:16:50.267Z,3272.1538
2024-05-09T02:17:51.928Z,3266.6155
2024-05-09T02:18:53.301Z,3249.3845
2024-05-09T02:19:54.890Z,3266.0000
2024-05-09T02:20:56.369Z,3261.2307
2024-05-09T02:21:57.887Z,3270.9231
2024-05-09T02:22:59.433Z,3271.0000
2024-05-09T02:24:00.935Z,3256.9231
2024-05-09T02:25:02.485Z,3256.5386
2024-05-09T02:26:04.034Z,3264.1538
2024-05-09T02:27:05.520Z,3261.7693
2024-05-09T02:28:07.033Z,3271.8462
2024-05-09T02:29:08.704Z,3258.3076
2024-05-09T02:30:18.698Z,3281.5386
2024-05-09T02:31:11.719Z,3285.6155
2024-05-09T02:32:13.447Z,3280.3845
2024-05-09T02:33:15.092Z,3266.1538
2024-05-09T02:34:16.383Z,3270.2307
2024-05-09T02:35:17.860Z,3268.2307
2024-05-09T02:36:19.383Z,3267.2307
2024-05-09T02:37:20.893Z,3246.6155
2024-05-09T02:38:22.511Z,3262.4614
2024-05-09T02:39:23.954Z,3261.9231
2024-05-09T02:40:33.564Z,3263.0000
2024-05-09T02:41:27.149Z,3267.5386
2024-05-09T02:42:28.560Z,3273.9231
2024-05-09T02:43:30.133Z,3266.0769
2024-05-09T02:44:31.723Z,3275.7693
2024-05-09T02:46:34.698Z,3252.6155
2024-05-09T02:47:36.351Z,3263.9231
2024-05-09T02:48:37.906Z,3262.1538
2024-05-09T02:49:39.347Z,3278.3076
2024-05-09T02:50:41.178Z,3281.9231
2024-05-09T02:51:42.338Z,3273.3845
2024-05-09T02:52:43.956Z,3268.1538
2024-05-09T02:53:45.464Z,3279.0769
2024-05-09T02:54:46.934Z,3265.0000
2024-05-09T02:55:48.511Z,3286.3076
2024-05-09T02:56:50.017Z,3267.1538
2024-05-09T02:57:51.545Z,3273.0769
2024-05-09T02:58:53.084Z,3262.0000
2024-05-09T02:59:54.619Z,3265.4614
2024-05-09T03:00:56.229Z,3272.9231
2024-05-09T03:01:57.801Z,3283.0000
2024-05-09T03:02:59.366Z,3283.4614
2024-05-09T03:04:00.985Z,3285.0000
2024-05-09T03:05:02.328Z,3284.7693
2024-05-09T03:06:03.801Z,3274.8462
2024-05-09T03:07:05.367Z,3284.6924
2024-05-09T03:08:07.088Z,3274.6924
2024-05-09T03:09:08.421Z,3267.3076
2024-05-09T03:10:18.247Z,3272.4614
2024-05-09T03:11:11.605Z,3276.3845
2024-05-09T03:12:13.171Z,3276.3845
2024-05-09T03:13:15.928Z,3291.0000
2024-05-09T03:14:16.135Z,3257.0769
2024-05-09T03:15:17.622Z,3276.8462
2024-05-09T03:16:19.109Z,3269.6155
2024-05-09T03:17:20.889Z,3279.1538
2024-05-09T03:18:22.322Z,3274.6924
2024-05-09T03:19:23.808Z,3281.0769
2024-05-09T03:20:32.416Z,3274.9231
2024-05-09T03:21:26.789Z,3256.7693
2024-05-09T03:22:28.311Z,3280.8462
2024-05-09T03:23:29.976Z,3280.7693
2024-05-09T03:24:31.368Z,3272.4614
2024-05-09T03:25:32.895Z,3266.6924
2024-05-09T03:26:35.412Z,3291.3845
2024-05-09T03:27:35.990Z,3266.3845
2024-05-09T03:28:37.501Z,3268.3845
2024-05-09T03:29:39.089Z,3281.6155
2024-05-09T03:30:42.887Z,3281.6924
2024-05-09T03:31:42.179Z,3273.2307
2024-05-09T03:32:43.808Z,3283.8462
2024-05-09T03:33:45.397Z,3272.2307
2024-05-09T03:34:46.753Z,3277.7693
2024-05-09T03:35:48.794Z,3276.4614
2024-05-09T03:36:49.792Z,3273.0000
2024-05-09T03:37:51.365Z,3284.3845
2024-05-09T03:38:52.811Z,3261.5386
2024-05-09T03:39:54.359Z,3288.3076
2024-05-09T03:40:55.921Z,3281.8462
2024-05-09T03:41:57.419Z,3277.5386
2024-05-09T03:42:59.076Z,3286.4614
2024-05-09T03:44:00.612Z,3271.9231
2024-05-09T03:45:02.020Z,3268.3845
2024-05-09T03:46:03.553Z,3276.8462
2024-05-09T03:47:05.128Z,3288.2307
2024-05-09T03:48:06.748Z,3269.1538
2024-05-09T03:49:08.318Z,3264.6924
2024-05-09T03:50:18.008Z,3282.8462
2024-05-09T03:51:11.309Z,3271.9231
2024-05-09T03:52:12.750Z,3260.5386
2024-05-09T03:53:14.502Z,3281.1538
2024-05-09T03:54:15.822Z,3281.3845
2024-05-09T03:55:17.353Z,3276.7693
2024-05-09T03:56:18.973Z,3277.7693
2024-05-09T03:57:20.420Z,3277.7693
2024-05-09T03:58:21.929Z,3282.7693
2024-05-09T03:59:23.488Z,3281.3845
2024-05-09T04:00:31.674Z,3266.0769
2024-05-09T04:01:26.626Z,3270.5386
2024-05-09T04:02:28.184Z,3283.6155
2024-05-09T04:03:29.797Z,3269.3076
2024-05-09T04:04:31.318Z,3288.4614
2024-05-09T04:05:32.947Z,3286.8462
2024-05-09T04:06:34.191Z,3267.6924
2024-05-09T04:07:35.737Z,3282.6155
2024-05-09T04:08:37.391Z,3275.6924
2024-05-09T04:09:38.801Z,3296.0769
2024-05-09T04:10:40.378Z,3279.1538
2024-05-09T04:11:41.943Z,3290.4614
2024-05-09T04:12:43.380Z,3279.4614
2024-05-09T04:13:44.960Z,3268.8462
2024-05-09T04:14:46.451Z,3278.5386
2024-05-09T04:15:48.011Z,3268.8462
2024-05-09T04:16:49.524Z,3276.4614
2024-05-09T04:17:51.315Z,3282.6155
2024-05-09T04:18:52.803Z,3299.0769
2024-05-09T04:19:54.192Z,3281.5386
2024-05-09T04:20:55.788Z,3290.9231
2024-05-09T04:21:57.212Z,3285.5386
2024-05-09T04:22:58.752Z,3284.7693
2024-05-09T04:24:00.255Z,3293.6924
2024-05-09T04:25:01.786Z,3280.4614
2024-05-09T04:26:03.387Z,3275.3076
2024-05-09T04:27:04.862Z,3285.3076
2024-05-09T04:28:06.408Z,3290.6155
2024-05-09T04:29:07.945Z,3284.0769
2024-05-09T04:30:15.472Z,3282.8462
2024-05-09T04:31:10.970Z,3278.2307
2024-05-09T04:32:12.691Z,3278.9231
2024-05-09T04:33:14.953Z,3283.3845
2024-05-09T04:34:15.739Z,3284.4614
2024-05-09T04:35:17.922Z,3290.4614
2024-05-09T04:36:18.636Z,3299.6667
2024-05-09T04:37:20.199Z,3302.5386
2024-05-09T04:38:21.763Z,3283.6155
2024-05-09T04:39:23.240Z,3289.8462
2024-05-09T04:40:31.613Z,3274.2307
2024-05-09T04:41:26.391Z,3270.4614
2024-05-09T04:42:27.841Z,3275.4614
2024-05-09T04:43:29.378Z,3289.3076
2024-05-09T04:44:30.948Z,3292.8462
2024-05-09T04:45:32.429Z,3284.4614
2024-05-09T04:46:33.956Z,3289.8462
2024-05-09T04:47:35.669Z,3288.0000
2024-05-09T04:48:37.192Z,3297.5386
2024-05-09T04:49:38.670Z,3281.3076
2024-05-09T04:50:40.305Z,3293.0000
2024-05-09T04:51:41.622Z,3279.3076
2024-05-09T04:52:43.142Z,3285.5386
2024-05-09T04:53:44.899Z,3288.0000
2024-05-09T04:54:46.267Z,3291.0000
2024-05-09T04:55:47.852Z,3284.1538
2024-05-09T04:56:49.317Z,3302.0769
2024-05-09T04:57:50.780Z,3302.6924
2024-05-09T04:58:52.369Z,3287.4614
2024-05-09T04:59:53.849Z,3287.7693
2024-05-09T05:00:55.423Z,3291.0000
2024-05-09T05:01:57.950Z,3294.0769
2024-05-09T05:02:58.614Z,3269.7693
2024-05-09T05:04:00.090Z,3297.6155
2024-05-09T05:05:01.606Z,3297.7693
2024-05-09T05:06:03.138Z,3284.0769
2024-05-09T05:07:04.568Z,3286.9231
2024-05-09T05:08:06.264Z,3298.6155
2024-05-09T05:09:07.627Z,3294.7693
2024-05-09T05:10:11.923Z,3285.2307
2024-05-09T05:11:10.775Z,3295.0769
2024-05-09T05:12:12.416Z,3281.2307
2024-05-09T05:13:13.745Z,3302.3076
2024-05-09T05:14:15.318Z,3301.4614
2024-05-09T05:15:16.799Z,3289.0000
2024-05-09T05:16:18.341Z,3304.6924
2024-05-09T05:17:19.928Z,3306.1538
2024-05-09T05:18:21.527Z,3311.8462
2024-05-09T05:19:23.004Z,3306.4614
2024-05-09T05:20:32.575Z,3302.3076
2024-05-09T05:21:26.189Z,3294.5833
2024-05-09T05:22:27.548Z,3293.4614
2024-05-09T05:23:29.149Z,3312.8462
2024-05-09T05:24:30.610Z,3284.0000
2024-05-09T05:25:32.111Z,3285.8462
2024-05-09T05:26:33.770Z,3286.5386
2024-05-09T05:27:35.212Z,3298.1538
2024-05-09T05:28:36.730Z,3293.8462
2024-05-09T05:29:38.376Z,3298.9231
2024-05-09T05:30:39.798Z,3295.6924
2024-05-09T05:31:41.362Z,3290.4614
2024-05-09T05:32:42.989Z,3300.0000
2024-05-09T05:33:44.422Z,3283.0769
2024-05-09T05:34:46.030Z,3297.3845
2024-05-09T05:35:47.536Z,3304.2307
2024-05-09T05:36:48.954Z,3301.0000
2024-05-09T05:37:50.585Z,3300.8462
2024-05-09T05:38:52.165Z,3303.2307
2024-05-09T05:39:53.565Z,3305.6924
2024-05-09T05:40:55.267Z,3302.6155
2024-05-09T05:41:57.442Z,3304.1538
2024-05-09T05:42:58.149Z,3297.9231
2024-05-09T05:43:59.721Z,3302.8462
2024-05-09T05:45:01.217Z,3302.6155
2024-05-09T05:46:02.778Z,3303.8462
2024-05-09T05:47:04.417Z,3276.7693
2024-05-09T05:48:06.612Z,3295.4614
2024-05-09T05:49:07.425Z,3295.7693
2024-05-09T05:50:20.481Z,3296.6924
2024-05-09T05:51:10.439Z,3307.1538
2024-05-09T05:52:11.952Z,3306.7693
2024-05-09T05:53:13.727Z,3298.3845
2024-05-09T05:54:14.994Z,3315.1538
2024-05-09T05:55:16.531Z,3298.8462
2024-05-09T05:56:18.099Z,3318.9231
2024-05-09T05:57:19.580Z,3320.3845
2024-05-09T05:58:21.101Z,3298.2307
2024-05-09T05:59:22.815Z,3283.7693
2024-05-09T06:00:30.398Z,3309.0000
2024-05-09T06:01:25.766Z,3310.9231
2024-05-09T06:02:27.311Z,3299.0769
2024-05-09T06:03:28.791Z,3293.3076
2024-05-09T06:04:30.356Z,3300.6924
2024-05-09T06:05:32.146Z,3313.3845
2024-05-09T06:06:33.354Z,3307.7693
2024-05-09T06:07:34.904Z,3300.3845
2024-05-09T06:08:36.463Z,3314.2307
2024-05-09T06:09:37.946Z,3297.3845
2024-05-09T06:10:41.026Z,3297.4614
2024-05-09T06:11:41.085Z,3304.7693
2024-05-09T06:12:42.555Z,3295.0769
2024-05-09T06:13:44.141Z,3304.4614
2024-05-09T06:14:45.594Z,3309.0769
2024-05-09T06:15:47.147Z,3301.0000
2024-05-09T06:16:48.694Z,3288.3845
2024-05-09T06:17:50.331Z,3313.3845
2024-05-09T06:18:51.973Z,3303.2307
2024-05-09T06:19:53.738Z,3299.5386
2024-05-09T06:20:54.850Z,3310.3845
2024-05-09T06:21:56.321Z,3323.1538
2024-05-09T06:22:57.878Z,3302.3845
2024-05-09T06:23:59.430Z,3301.0000
2024-05-09T06:25:00.934Z,3303.2307
2024-05-09T06:26:02.968Z,3290.8462
2024-05-09T06:27:04.021Z,3313.5833
2024-05-09T06:28:05.501Z,3312.1538
2024-05-09T06:29:07.103Z,3299.6155
2024-05-09T06:30:14.381Z,3291.1538
2024-05-09T06:31:10.114Z,3290.8462
2024-05-09T06:32:11.818Z,3312.3845
2024-05-09T06:33:15.450Z,3315.6924
2024-05-09T06:34:14.898Z,3294.0000
2024-05-09T06:35:16.947Z,3298.0769
2024-05-09T06:36:17.837Z,3315.3333
2024-05-09T06:37:19.383Z,3304.3076
2024-05-09T06:38:20.904Z,3307.0769
2024-05-09T06:39:22.408Z,3300.4614
2024-05-09T06:40:29.259Z,3299.6924
2024-05-09T06:41:25.575Z,3295.3845
2024-05-09T06:42:27.033Z,3304.3076
2024-05-09T06:43:28.539Z,3301.4614
2024-05-09T06:44:30.214Z,3310.7693
2024-05-09T06:45:31.609Z,3299.1538
2024-05-09T06:46:33.126Z,3318.2307
2024-05-09T06:47:34.812Z,3300.3076
2024-05-09T06:48:36.299Z,3296.8462
2024-05-09T06:49:37.910Z,3307.2307
2024-05-09T06:50:40.054Z,3310.7693
2024-05-09T06:51:40.781Z,3318.2307
2024-05-09T06:52:42.313Z,3291.3076
2024-05-09T06:53:43.843Z,3306.0000
2024-05-09T06:54:45.936Z,3308.0769
2024-05-09T06:55:47.038Z,3316.3333
2024-05-09T06:56:48.405Z,3305.5386
2024-05-09T06:57:49.943Z,3301.4614
2024-05-09T06:58:51.498Z,3301.2307
2024-05-09T06:59:53.023Z,3314.9231
2024-05-09T07:00:54.567Z,3309.7693
2024-05-09T07:01:56.154Z,3315.1538
2024-05-09T07:02:58.985Z,3308.3076
2024-05-09T07:03:59.210Z,3311.7693
2024-05-09T07:05:00.931Z,3320.7693
2024-05-09T07:06:02.251Z,3308.9231
2024-05-09T07:07:03.689Z,3310.4614
2024-05-09T07:08:05.998Z,3302.3845
2024-05-09T07:09:07.462Z,3310.1667
2024-05-09T07:10:14.798Z,3301.6667
2024-05-09T07:11:09.919Z,3301.9231
2024-05-09T07:12:11.471Z,3319.6924
2024-05-09T07:13:13.063Z,3329.3076
2024-05-09T07:14:14.466Z,3316.2307
2024-05-09T07:15:15.945Z,3312.0769
2024-05-09T07:16:17.442Z,3309.2307
2024-05-09T07:17:19.101Z,3319.3076
2024-05-09T07:18:20.933Z,3311.3076
2024-05-09T07:19:22.149Z,3318.0000
2024-05-09T07:20:32.121Z,3301.1538
2024-05-09T07:21:25.130Z,3310.2307
2024-05-09T07:22:26.612Z,3311.0769
2024-05-09T07:23:28.299Z,3320.4614
2024-05-09T07:24:29.659Z,3319.9231
2024-05-09T07:25:31.235Z,3310.6155
2024-05-09T07:26:33.022Z,3322.9231
2024-05-09T07:27:34.268Z,3312.0769
2024-05-09T07:28:35.804Z,3308.2307
2024-05-09T07:29:38.860Z,3311.3076
2024-05-09T07:30:38.841Z,3305.3076
2024-05-09T07:31:40.412Z,3300.6155
2024-05-09T07:32:42.010Z,3323.3845
2024-05-09T07:33:43.497Z,3313.1538
2024-05-09T07:34:45.113Z,3307.0769
2024-05-09T07:35:46.550Z,3316.6924
2024-05-09T07:36:48.043Z,3316.6924
2024-05-09T07:37:49.622Z,3324.4614
2024-05-09T07:38:51.106Z,3297.6155
2024-05-09T07:39:52.586Z,3309.8462
2024-05-09T07:40:54.122Z,3305.1538
2024-05-09T07:41:55.630Z,3307.7693
2024-05-09T07:42:57.154Z,3314.3076
2024-05-09T07:43:58.746Z,3312.8462
2024-05-09T07:45:17.132Z,3316.2307
2024-05-09T07:46:51.610Z,3322.8462
2024-05-09T07:48:14.149Z,3306.6155
2024-05-09T07:53:29.195Z,3305.9231
2024-05-09T07:53:37.196Z,3310.6155
2024-05-09T07:54:14.144Z,3312.0000
2024-05-09T07:55:15.655Z,3303.9231
2024-05-09T07:56:17.754Z,3316.6155
2024-05-09T07:57:18.691Z,3304.1538
2024-05-09T07:58:20.059Z,3322.3076
2024-05-09T07:59:21.635Z,3306.3076
2024-05-09T08:00:29.753Z,3313.8462
2024-05-09T08:01:24.822Z,3318.6924
2024-05-09T08:02:26.461Z,3319.0000
2024-05-09T08:03:27.787Z,3295.2307
2024-05-09T08:04:29.434Z,3316.9231
2024-05-09T08:05:31.058Z,3317.0769
2024-05-09T08:06:32.336Z,3305.3845
2024-05-09T08:07:33.844Z,3328.2307
2024-05-09T08:08:35.390Z,3312.1538
2024-05-09T08:09:38.394Z,3307.5386
2024-05-09T08:10:38.499Z,3304.1538
2024-05-09T08:11:39.966Z,3328.3845
2024-05-09T08:12:41.545Z,3326.0769
2024-05-09T08:13:43.036Z,3311.6924
2024-05-09T08:14:44.547Z,3305.5386
2024-05-09T08:15:47.002Z,3312.3076
2024-05-09T08:16:48.468Z,3321.0000
2024-05-09T08:17:49.168Z,3322.2500
2024-05-09T08:18:50.806Z,3306.8462
2024-05-09T08:19:52.246Z,3324.0000
2024-05-09T08:20:53.734Z,3308.4614
2024-05-09T08:21:55.556Z,3335.6155
2024-05-09T08:22:56.815Z,3308.3076
2024-05-09T08:23:58.330Z,3297.1538
2024-05-09T08:24:59.926Z,3309.0769
2024-05-09T08:26:01.373Z,3324.6924
2024-05-09T08:27:02.933Z,3328.9231
2024-05-09T08:28:04.549Z,3312.7693
2024-05-09T08:29:05.979Z,3314.7693
2024-05-09T08:30:10.219Z,3342.3076
2024-05-09T08:31:09.080Z,3324.6155
2024-05-09T08:32:10.617Z,3320.9231
2024-05-09T08:33:12.200Z,3312.3076
2024-05-09T08:34:13.832Z,3310.8462
2024-05-09T08:35:15.178Z,3303.4614
2024-05-09T08:36:16.673Z,3325.0000
2024-05-09T08:37:22.493Z,3315.2307
2024-05-09T08:38:19.739Z,3320.0000
2024-05-09T08:39:21.274Z,3314.6155
2024-05-09T08:40:30.701Z,3314.3076
2024-05-09T08:41:24.331Z,3291.4614
2024-05-09T08:42:25.859Z,3330.1538
2024-05-09T08:43:27.406Z,3321.3076
2024-05-09T08:44:28.955Z,3327.7693
2024-05-09T08:45:30.596Z,3307.3845
2024-05-09T08:46:32.035Z,3315.9231
2024-05-09T08:47:33.555Z,3324.0000
2024-05-09T08:48:35.177Z,3317.4614
2024-05-09T08:49:37.777Z,3310.4614
2024-05-09T08:50:39.706Z,3309.9231
2024-05-09T08:51:39.691Z,3315.8462
2024-05-09T08:52:41.974Z,3313.0769
2024-05-09T08:53:42.703Z,3317.0000
2024-05-09T08:54:44.246Z,3295.2307
2024-05-09T08:55:45.784Z,3316.9231
2024-05-09T08:56:47.254Z,3300.9231
2024-05-09T08:57:48.820Z,3321.1538
2024-05-09T08:58:50.346Z,3312.4614
2024-05-09T08:59:51.852Z,3322.0769
2024-05-09T09:00:53.513Z,3306.1538
2024-05-09T09:01:55.043Z,3315.1538
2024-05-09T09:02:57.020Z,3312.2307
2024-05-09T09:03:58.038Z,3313.1667
2024-05-09T09:04:59.660Z,3299.5386
2024-05-09T09:06:01.058Z,3295.0769
2024-05-09T09:07:03.629Z,3317.6924
2024-05-09T09:08:04.079Z,3310.8462
2024-05-09T09:09:05.626Z,3303.6924
2024-05-09T09:10:08.715Z,3308.0000
2024-05-09T09:11:08.672Z,3300.3845
2024-05-09T09:12:10.771Z,3304.2307
2024-05-09T09:13:11.852Z,3323.1538
2024-05-09T09:14:13.251Z,3304.8462
2024-05-09T09:15:14.811Z,3324.5386
2024-05-09T09:16:16.382Z,3314.3845
2024-05-09T09:17:17.908Z,3305.3076
2024-05-09T09:18:19.563Z,3313.0000
2024-05-09T09:19:21.146Z,3311.4614
2024-05-09T09:20:26.571Z,3321.3845
2024-05-09T09:21:23.947Z,3309.1538
2024-05-09T09:22:25.493Z,3307.5386
2024-05-09T09:23:27.032Z,3305.6155
2024-05-09T09:24:28.611Z,3314.0000
2024-05-09T09:25:30.093Z,3305.3076
2024-05-09T09:26:31.595Z,3298.0769
2024-05-09T09:27:33.169Z,3296.3845
2024-05-09T09:28:34.663Z,3316.6924
2024-05-09T09:29:36.601Z,3300.6155
2024-05-09T09:30:38.265Z,3307.9167
2024-05-09T09:31:39.320Z,3292.9231
2024-05-09T09:32:40.880Z,3297.2307
2024-05-09T09:33:42.488Z,3310.8462
2024-05-09T09:34:43.964Z,3300.8462
2024-05-09T09:35:45.355Z,3296.4614
2024-05-09T09:36:46.966Z,3302.5386
2024-05-09T09:37:48.396Z,3311.3076
2024-05-09T09:38:49.940Z,3306.0000
2024-05-09T09:39:51.555Z,3296.6155
2024-05-09T09:40:53.037Z,3301.0769
2024-05-09T09:41:54.521Z,3301.3845
2024-05-09T09:42:56.118Z,3317.3076
2024-05-09T09:43:57.570Z,3292.9231
2024-05-09T09:45:04.896Z,3310.0000
2024-05-09T09:46:00.684Z,3299.5000
2024-05-09T09:47:02.191Z,3297.9231
2024-05-09T09:48:03.784Z,3300.4614
2024-05-09T09:49:05.639Z,3319.9231
2024-05-09T09:50:12.040Z,3320.9167
2024-05-09T09:51:08.308Z,3324.3076
2024-05-09T09:52:11.411Z,3324.6924
2024-05-09T09:53:11.320Z,3317.4167
2024-05-09T09:54:12.891Z,3314.5386
2024-05-09T09:55:14.549Z,3313.3076
2024-05-09T09:56:15.937Z,3317.1538
2024-05-09T09:57:17.447Z,3325.1538
2024-05-09T09:58:19.048Z,3319.0000
2024-05-09T09:59:20.514Z,3325.7693
2024-05-09T10:00:27.163Z,3313.8462
2024-05-09T10:01:23.602Z,3321.4614
2024-05-09T10:02:25.231Z,3318.3076
2024-05-09T10:03:26.696Z,3329.0000
2024-05-09T10:04:28.244Z,3313.7693
2024-05-09T10:05:30.105Z,3318.0000
2024-05-09T10:06:31.240Z,3320.3076
2024-05-09T10:07:32.724Z,3323.1538
2024-05-09T10:08:35.005Z,3315.7693
2024-05-09T10:09:36.054Z,3317.6155
2024-05-09T10:10:37.392Z,3332.8462
2024-05-09T10:11:45.176Z,3333.0000
2024-05-09T10:12:40.388Z,3334.0000
2024-05-09T10:13:41.928Z,3324.0000
2024-05-09T10:14:43.431Z,3332.5386
2024-05-09T10:15:44.978Z,3322.9231
2024-05-09T10:16:46.496Z,3329.2307
2024-05-09T10:17:48.080Z,3346.6924
2024-05-09T10:18:49.635Z,3340.5386
2024-05-09T10:19:51.130Z,3334.8462
2024-05-09T10:20:52.598Z,3314.0000
2024-05-09T10:21:54.161Z,3323.3845
2024-05-09T10:22:55.635Z,3334.3845
2024-05-09T10:23:57.183Z,3332.3076
2024-05-09T10:24:59.177Z,3331.7693
2024-05-09T10:26:00.278Z,3323.0000
2024-05-09T10:27:01.770Z,3314.1538
2024-05-09T10:28:03.330Z,3322.3845
2024-05-09T10:29:04.785Z,3303.0000
2024-05-09T10:30:11.563Z,3323.1538
2024-05-09T10:31:08.054Z,3328.9231
2024-05-09T10:32:09.395Z,3316.0769
2024-05-09T10:33:11.148Z,3294.4614
2024-05-09T10:34:12.633Z,3303.1538
2024-05-09T10:35:14.035Z,3299.8462
2024-05-09T10:36:15.605Z,3309.8462
2024-05-09T10:37:17.195Z,3311.7693
2024-05-09T10:38:18.643Z,3315.9231
2024-05-09T10:39:20.164Z,3308.4614
2024-05-09T10:41:23.372Z,3305.8462
2024-05-09T10:42:24.740Z,3316.8462
2024-05-09T10:43:26.323Z,3300.7693
2024-05-09T10:44:27.822Z,3312.6155
2024-05-09T10:45:29.379Z,3311.1538
2024-05-09T10:46:30.987Z,3301.1538
2024-05-09T10:47:32.589Z,3318.3845
2024-05-09T10:48:34.038Z,3304.2307
2024-05-09T10:49:35.543Z,3298.3845
2024-05-09T10:50:37.003Z,3294.9231
2024-05-09T10:51:39.136Z,3312.2307
2024-05-09T10:52:40.065Z,3309.5000
2024-05-09T10:53:41.589Z,3299.3076
2024-05-09T10:54:43.179Z,3306.5386
2024-05-09T10:55:44.661Z,3301.3845
2024-05-09T10:56:46.199Z,3313.0000
2024-05-09T10:57:47.763Z,3310.3845
2024-05-09T10:58:49.267Z,3302.5386
2024-05-09T10:59:50.795Z,3294.9231
2024-05-09T11:00:52.397Z,3288.1538
2024-05-09T11:01:54.635Z,3305.1538
2024-05-09T11:02:55.409Z,3305.0000
2024-05-09T11:03:57.011Z,3290.8462
2024-05-09T11:04:58.518Z,3285.5386
2024-05-09T11:05:59.948Z,3280.4614
2024-05-09T11:07:02.893Z,3307.1538
2024-05-09T11:08:03.038Z,3294.3076
2024-05-09T11:09:04.753Z,3274.2307
2024-05-09T11:10:09.661Z,3293.3845
2024-05-09T11:11:08.998Z,3306.4614
2024-05-09T11:12:09.261Z,3298.1667
2024-05-09T11:13:10.778Z,3309.4614
2024-05-09T11:14:12.214Z,3288.7693
2024-05-09T11:15:13.755Z,3301.3076
2024-05-09T11:16:15.317Z,3306.0769
2024-05-09T11:17:16.826Z,3296.8462
2024-05-09T11:18:19.799Z,3300.3845
2024-05-09T11:19:20.152Z,3305.8462
2024-05-09T11:20:26.959Z,3299.7693
2024-05-09T11:21:22.920Z,3288.7693
2024-05-09T11:22:24.479Z,3286.2307
2024-05-09T11:23:25.990Z,3289.7693
2024-05-09T11:24:27.646Z,3288.0769
2024-05-09T11:25:29.027Z,3320.7693
2024-05-09T11:26:30.555Z,3290.3076
2024-05-09T11:27:32.124Z,3283.9231
2024-05-09T11:28:33.641Z,3297.1538
2024-05-09T11:29:35.156Z,3297.0000
2024-05-09T11:30:36.720Z,3318.0769
2024-05-09T11:31:38.260Z,3301.1538
2024-05-09T11:32:39.801Z,3297.7693
2024-05-09T11:33:41.490Z,3295.0000
2024-05-09T11:34:42.991Z,3277.3845
2024-05-09T11:35:44.353Z,3298.6924
2024-05-09T11:36:45.920Z,3300.3845
2024-05-09T11:37:48.058Z,3300.6924
2024-05-09T11:38:49.584Z,3290.2500
2024-05-09T11:39:50.536Z,3289.0833
2024-05-09T11:40:52.082Z,3307.6155
2024-05-09T11:41:53.522Z,3304.5386
2024-05-09T11:42:55.144Z,3300.0000
2024-05-09T11:43:56.624Z,3290.6155
2024-05-09T11:44:58.117Z,3298.7693
2024-05-09T11:45:59.800Z,3295.4614
2024-05-09T11:47:01.221Z,3315.7693
2024-05-09T11:48:02.999Z,3324.0769